Terminal Aerodrome Forecast
Issued by NWS Cleveland, OH

Home | Current Version | Previous Version | Graphics & Text | Print | Product List | Glossary On
Versions: 1 2 3 4 5 6 7 8 9 10 11 12 13 14 15 16
000
FTUS41 KCLE 242300
TAFCLE
TAF
KCLE 242334Z 2500/2606 21025G45KT 6SM -SHRA VCTS SCT015 OVC035CB
      TEMPO 2500/2502 2SM TSRA BR BKN015CB OVC020
     FM250200 22020G35KT 6SM -SHRA BR VCTS OVC012CB
     FM250300 24020G30KT P6SM -SHRA OVC012
     FM250900 24020G32KT 3SM -SHSN OVC018
     FM251200 24020G30KT P6SM -SHSN OVC018
     FM251500 25012G25KT 5SM -SHSN BR OVC018=

USA.gov is the U.S. government's official web portal to all federal, state and local government web resources and services.